createdAt,value
2023-01-02T00:01:09.101Z,14.18
2023-01-02T00:06:12.071Z,14.75
2023-01-02T00:11:16.251Z,12.93
2023-01-02T00:16:19.049Z,13.27
2023-01-02T00:21:21.495Z,11.52
2023-01-02T00:26:25.301Z,11.27
2023-01-02T00:31:27.755Z,12.75
2023-01-02T00:36:30.225Z,11.77
2023-01-02T00:41:33.954Z,10.23
2023-01-02T00:46:36.372Z,9.43
2023-01-02T00:51:38.813Z,9.80
2023-01-02T00:56:42.592Z,9.70
2023-01-02T01:01:45.154Z,7.68
2023-01-02T01:06:47.616Z,7.67
2023-01-02T01:11:51.336Z,8.15
2023-01-02T01:16:53.721Z,9.02
2023-01-02T01:21:56.139Z,8.07
2023-01-02T01:27:00.954Z,8.43
2023-01-02T01:32:03.367Z,8.63
2023-01-02T01:37:05.732Z,7.35
2023-01-02T01:42:11.646Z,8.20
2023-01-02T01:47:22.789Z,7.63
2023-01-02T01:52:27.074Z,8.45
2023-01-02T01:57:32.476Z,8.05
2023-01-02T02:02:35.397Z,7.63
2023-01-02T02:07:40.084Z,7.28
2023-01-02T02:12:43.854Z,7.85
2023-01-02T02:17:50.864Z,7.30
2023-01-02T02:23:04.344Z,7.35
2023-01-02T02:28:27.897Z,7.20
2023-01-02T02:33:36.935Z,7.30
2023-01-02T02:38:53.297Z,7.22
2023-01-02T02:44:01.958Z,8.15
2023-01-02T02:49:08.503Z,7.38
2023-01-02T02:54:13.440Z,8.10
2023-01-02T02:59:15.928Z,7.47
2023-01-02T03:04:20.487Z,7.27
2023-01-02T03:09:28.891Z,7.50
2023-01-02T03:14:34.218Z,7.10
2023-01-02T03:19:41.243Z,6.88
2023-01-02T03:24:44.173Z,8.48
2023-01-02T03:29:48.830Z,6.82
2023-01-02T03:34:52.877Z,6.78
2023-01-02T03:39:55.955Z,6.47
2023-01-02T03:45:01.778Z,7.40
2023-01-02T03:50:08.226Z,6.00
2023-01-02T03:55:10.951Z,6.43
2023-01-02T04:00:14.637Z,7.32
2023-01-02T04:05:21.484Z,5.75
2023-01-02T04:10:24.773Z,7.03
2023-01-02T04:20:31.822Z,6.03
2023-01-02T04:25:37.962Z,5.90
2023-01-02T04:30:47.588Z,6.75
2023-01-02T04:35:51.445Z,6.60
2023-01-02T04:40:53.886Z,5.43
2023-01-02T04:45:56.294Z,5.87
2023-01-02T04:50:59.995Z,5.13
2023-01-02T04:56:02.348Z,5.40
2023-01-02T05:01:08.770Z,5.00
2023-01-02T05:06:13.057Z,4.95
2023-01-02T05:11:16.521Z,5.38
2023-01-02T05:16:18.941Z,5.32
2023-01-02T05:21:40.431Z,5.03
2023-01-02T05:26:42.815Z,5.72
2023-01-02T05:31:45.236Z,6.17
2023-01-02T05:36:49.137Z,6.50
2023-01-02T05:41:51.534Z,5.95
2023-01-02T05:46:54.293Z,6.20
2023-01-02T05:51:58.119Z,6.22
2023-01-02T05:57:00.562Z,6.13
2023-01-02T06:02:03.105Z,6.37
2023-01-02T06:07:06.894Z,6.00
2023-01-02T06:12:09.320Z,5.82
2023-01-02T06:17:11.687Z,6.33
2023-01-02T06:22:15.458Z,6.28
2023-01-02T06:27:17.823Z,6.57
2023-01-02T06:32:20.272Z,6.20
2023-01-02T06:37:24.073Z,5.63
2023-01-02T06:42:26.466Z,5.18
2023-01-02T06:47:28.893Z,5.20
2023-01-02T06:52:32.666Z,5.17
2023-01-02T06:57:35.132Z,4.78
2023-01-02T07:02:37.630Z,4.83
2023-01-02T07:07:41.525Z,4.93
2023-01-02T07:12:43.951Z,4.80
2023-01-02T07:17:46.417Z,4.90
2023-01-02T07:22:52.123Z,5.10
2023-01-02T07:27:54.527Z,8.40
2023-01-02T07:32:56.913Z,2.50
2023-01-02T07:38:00.665Z,1.05
2023-01-02T07:43:03.043Z,0.98
2023-01-02T07:48:05.768Z,0.80
2023-01-02T07:53:09.521Z,1.17
2023-01-02T07:58:11.941Z,1.90
2023-01-02T08:03:14.389Z,1.67
2023-01-02T08:08:18.128Z,1.67
2023-01-02T08:13:20.591Z,1.85
2023-01-02T08:18:22.980Z,2.35
2023-01-02T08:23:26.805Z,2.42
2023-01-02T08:28:29.662Z,2.85
2023-01-02T08:33:32.056Z,2.92
2023-01-02T08:38:37.238Z,3.40
2023-01-02T08:43:41.327Z,3.83
2023-01-02T08:48:43.898Z,3.08
2023-01-02T08:53:47.801Z,3.10
2023-01-02T08:58:52.842Z,2.80
2023-01-02T09:03:56.038Z,4.55
2023-01-02T09:09:03.217Z,3.53
2023-01-02T09:14:10.399Z,3.45
2023-01-02T09:19:13.082Z,2.43
2023-01-02T09:24:17.058Z,2.57
2023-01-02T09:29:19.684Z,2.08
2023-01-02T09:34:22.589Z,2.57
2023-01-02T09:45:08.256Z,2.10
2023-01-02T09:50:13.572Z,1.87
2023-01-02T09:55:16.972Z,1.73
2023-01-02T10:05:32.015Z,2.65
2023-01-02T10:10:36.760Z,1.80
2023-01-02T10:15:43.547Z,2.50
2023-01-02T10:20:49.979Z,2.28
2023-01-02T10:25:55.244Z,2.70
2023-01-02T10:31:06.802Z,3.08
2023-01-02T10:36:15.012Z,4.40
2023-01-02T10:41:17.878Z,4.18
2023-01-02T10:46:20.461Z,4.10
2023-01-02T10:51:24.950Z,2.97
2023-01-02T10:56:27.561Z,2.63
2023-01-02T11:01:30.780Z,2.70
2023-01-02T11:06:39.518Z,2.40
2023-01-02T11:11:49.137Z,2.25
2023-01-02T11:16:52.228Z,2.10
2023-01-02T11:21:56.874Z,3.00
2023-01-02T11:27:02.380Z,3.63
2023-01-02T11:32:05.041Z,4.15
2023-01-02T11:37:15.697Z,4.30
2023-01-02T11:42:38.490Z,4.95
2023-01-02T11:47:43.857Z,5.63
2023-01-02T11:52:50.513Z,6.78
2023-01-02T11:57:55.462Z,5.90
2023-01-02T12:03:01.328Z,6.03
2023-01-02T12:08:07.838Z,5.47
2023-01-02T12:13:18.225Z,5.35
2023-01-02T12:18:27.663Z,5.57
2023-01-02T12:23:36.347Z,5.93
2023-01-02T12:28:54.173Z,5.43
2023-01-02T12:34:01.035Z,5.10
2023-01-02T12:39:12.576Z,5.00
2023-01-02T12:44:25.117Z,4.13
2023-01-02T12:49:38.138Z,4.18
2023-01-02T12:54:50.393Z,3.40
2023-01-02T13:00:00.976Z,3.78
2023-01-02T13:05:05.862Z,3.63
2023-01-02T13:10:14.001Z,3.75
2023-01-02T13:15:19.733Z,3.60
2023-01-02T13:20:30.147Z,3.53
2023-01-02T13:25:34.267Z,3.35
2023-01-02T13:30:37.218Z,3.28
2023-01-02T13:35:39.731Z,3.70
2023-01-02T13:40:43.703Z,3.70
2023-01-02T13:45:49.963Z,3.35
2023-01-02T13:50:59.467Z,3.67
2023-01-02T13:56:05.224Z,4.10
2023-01-02T14:01:26.911Z,3.58
2023-01-02T14:06:30.148Z,4.43
2023-01-02T14:11:56.700Z,5.05
2023-01-02T14:17:03.971Z,5.85
2023-01-02T14:22:11.395Z,6.30
2023-01-02T14:27:23.781Z,7.53
2023-01-02T14:32:31.431Z,7.03
2023-01-02T14:37:37.931Z,7.18
2023-01-02T14:43:00.514Z,7.78
2023-01-02T14:48:07.793Z,8.30
2023-01-02T14:53:13.365Z,8.23
2023-01-02T14:58:20.253Z,8.52
2023-01-02T15:03:26.982Z,9.55
2023-01-02T15:08:34.813Z,9.98
2023-01-02T15:14:04.108Z,12.80
2023-01-02T15:19:01.299Z,11.40
2023-01-02T15:24:04.033Z,11.38
2023-01-02T15:29:19.976Z,12.57
2023-01-02T15:34:26.824Z,13.57
2023-01-02T15:39:33.081Z,13.07
2023-01-02T15:44:54.572Z,14.65
2023-01-02T15:49:57.375Z,15.95
2023-01-02T15:55:00.409Z,16.52
2023-01-02T16:00:04.604Z,16.60
2023-01-02T16:05:08.743Z,15.75
2023-01-02T16:10:17.469Z,17.13
2023-01-02T16:15:22.817Z,18.02
2023-01-02T16:20:26.516Z,17.60
2023-01-02T16:25:30.084Z,18.05
2023-01-02T16:30:37.794Z,19.38
2023-01-02T16:35:58.225Z,18.65
2023-01-02T16:41:05.019Z,20.17
2023-01-02T16:46:11.511Z,17.55
2023-01-02T16:51:14.700Z,18.33
2023-01-02T16:56:17.168Z,17.52
2023-01-02T17:01:23.548Z,16.65
2023-01-02T17:06:26.059Z,14.57
2023-01-02T17:11:28.478Z,15.77
2023-01-02T17:16:32.311Z,13.85
2023-01-02T17:21:34.820Z,14.85
2023-01-02T17:26:37.262Z,14.90
2023-01-02T17:31:41.180Z,15.00
2023-01-02T17:36:43.559Z,18.05
2023-01-02T17:41:45.939Z,16.20
2023-01-02T17:47:15.745Z,16.30
2023-01-02T17:52:13.399Z,16.10
2023-01-02T17:57:15.966Z,16.70
2023-01-02T18:02:20.674Z,26.10
2023-01-02T18:07:23.219Z,16.42
2023-01-02T18:12:26.556Z,19.52
2023-01-02T18:17:30.628Z,12.07
2023-01-02T18:22:33.072Z,14.23
2023-01-02T18:27:35.590Z,13.30
2023-01-02T18:32:41.008Z,9.35
2023-01-02T18:37:43.459Z,10.43
2023-01-02T18:42:47.053Z,10.98
2023-01-02T18:47:54.594Z,9.73
2023-01-02T18:52:57.040Z,11.95
2023-01-02T18:58:00.715Z,11.32
2023-01-02T19:03:06.781Z,12.07
2023-01-02T19:08:18.809Z,13.20
2023-01-02T19:13:23.164Z,13.00
2023-01-02T19:18:29.831Z,15.75
2023-01-02T19:23:35.192Z,14.70
2023-01-02T19:28:38.075Z,17.27
2023-01-02T19:33:44.593Z,18.45
2023-01-02T19:38:48.887Z,18.52
2023-01-02T19:43:51.329Z,15.98
2023-01-02T19:48:56.677Z,12.57
2023-01-02T19:54:04.323Z,15.20
2023-01-02T19:59:10.864Z,22.92
2023-01-02T20:04:18.918Z,28.77
2023-01-02T20:09:25.485Z,26.00
2023-01-02T20:14:27.890Z,30.83
2023-01-02T20:19:31.683Z,25.80
2023-01-02T20:24:34.348Z,24.80
2023-01-02T20:29:36.861Z,25.97
2023-01-02T20:34:40.821Z,25.95
2023-01-02T20:39:43.312Z,23.33
2023-01-02T20:44:46.104Z,25.40
2023-01-02T20:49:49.952Z,22.03
2023-01-02T20:54:52.422Z,22.95
2023-01-02T20:59:54.897Z,24.80
2023-01-02T21:05:00.066Z,33.88
2023-01-02T21:10:02.490Z,29.25
2023-01-02T21:15:05.009Z,29.98
2023-01-02T21:20:09.214Z,29.48
2023-01-02T21:25:11.608Z,25.42
2023-01-02T21:30:14.190Z,30.45
2023-01-02T21:35:17.996Z,34.33
2023-01-02T21:40:20.600Z,36.13
2023-01-02T21:45:23.498Z,31.75
2023-01-02T21:50:27.560Z,33.15
2023-01-02T21:55:30.101Z,32.42
2023-01-02T22:00:32.703Z,32.63
2023-01-02T22:05:36.481Z,33.08
2023-01-02T22:10:38.948Z,35.30
2023-01-02T22:15:41.424Z,34.83
2023-01-02T22:20:45.359Z,36.93
2023-01-02T22:25:47.753Z,32.58
2023-01-02T22:30:50.196Z,40.25
2023-01-02T22:35:53.903Z,37.58
2023-01-02T22:40:56.376Z,41.42
2023-01-02T22:46:01.800Z,41.45
2023-01-02T22:51:07.367Z,39.80
2023-01-02T22:56:12.628Z,41.88
2023-01-02T23:01:17.407Z,43.25
2023-01-02T23:06:22.532Z,43.72
2023-01-02T23:11:25.062Z,49.88
2023-01-02T23:16:56.691Z,55.20
2023-01-02T23:22:01.024Z,62.63
2023-01-02T23:27:05.219Z,66.30
2023-01-02T23:32:10.255Z,64.57
2023-01-02T23:37:14.071Z,68.43
2023-01-02T23:42:17.330Z,72.22
2023-01-02T23:47:19.735Z,67.75
2023-01-02T23:52:23.437Z,64.30
2023-01-02T23:57:25.827Z,67.10
